sensor_id;sensor_type;location;lat;lon;timestamp;temperature;humidity
32139;DHT22;18644;48.700;9.210;2022-11-20T00:00:49;9.40;66.30
32139;DHT22;18644;48.700;9.210;2022-11-20T00:03:16;9.30;66.20
32139;DHT22;18644;48.700;9.210;2022-11-20T00:05:44;9.30;66.20
32139;DHT22;18644;48.700;9.210;2022-11-20T00:08:11;9.30;66.20
32139;DHT22;18644;48.700;9.210;2022-11-20T00:10:38;9.30;66.20
32139;DHT22;18644;48.700;9.210;2022-11-20T00:13:06;9.30;66.20
32139;DHT22;18644;48.700;9.210;2022-11-20T00:15:34;9.30;66.20
32139;DHT22;18644;48.700;9.210;2022-11-20T00:18:01;9.20;66.10
32139;DHT22;18644;48.700;9.210;2022-11-20T00:20:28;9.20;66.10
32139;DHT22;18644;48.700;9.210;2022-11-20T00:22:56;9.20;66.10
32139;DHT22;18644;48.700;9.210;2022-11-20T00:25:23;9.20;66.10
32139;DHT22;18644;48.700;9.210;2022-11-20T00:27:50;9.10;66.00
32139;DHT22;18644;48.700;9.210;2022-11-20T00:30:17;9.10;66.10
32139;DHT22;18644;48.700;9.210;2022-11-20T00:32:46;9.10;66.20
32139;DHT22;18644;48.700;9.210;2022-11-20T00:35:13;9.10;66.20
32139;DHT22;18644;48.700;9.210;2022-11-20T00:37:40;9.10;66.20
32139;DHT22;18644;48.700;9.210;2022-11-20T00:40:08;9.10;66.30
32139;DHT22;18644;48.700;9.210;2022-11-20T00:42:35;9.10;66.30
32139;DHT22;18644;48.700;9.210;2022-11-20T00:45:03;9.00;66.20
32139;DHT22;18644;48.700;9.210;2022-11-20T00:47:32;9.10;66.30
32139;DHT22;18644;48.700;9.210;2022-11-20T00:50:00;9.00;66.30
32139;DHT22;18644;48.700;9.210;2022-11-20T00:52:27;9.00;66.30
32139;DHT22;18644;48.700;9.210;2022-11-20T00:54:55;9.00;66.30
32139;DHT22;18644;48.700;9.210;2022-11-20T00:57:22;9.00;66.40
32139;DHT22;18644;48.700;9.210;2022-11-20T00:59:49;9.00;66.40
32139;DHT22;18644;48.700;9.210;2022-11-20T01:02:16;9.00;66.40
32139;DHT22;18644;48.700;9.210;2022-11-20T01:04:43;9.00;66.40
32139;DHT22;18644;48.700;9.210;2022-11-20T01:07:11;9.00;66.50
32139;DHT22;18644;48.700;9.210;2022-11-20T01:09:38;9.00;66.50
32139;DHT22;18644;48.700;9.210;2022-11-20T01:12:05;9.00;66.50
32139;DHT22;18644;48.700;9.210;2022-11-20T01:14:32;9.00;66.60
32139;DHT22;18644;48.700;9.210;2022-11-20T01:17:00;9.00;66.60
32139;DHT22;18644;48.700;9.210;2022-11-20T01:19:28;9.00;66.60
32139;DHT22;18644;48.700;9.210;2022-11-20T01:21:56;9.00;66.60
32139;DHT22;18644;48.700;9.210;2022-11-20T01:24:24;9.00;66.60
32139;DHT22;18644;48.700;9.210;2022-11-20T01:26:51;9.00;66.60
32139;DHT22;18644;48.700;9.210;2022-11-20T01:29:20;9.00;66.50
32139;DHT22;18644;48.700;9.210;2022-11-20T01:31:48;9.00;66.50
32139;DHT22;18644;48.700;9.210;2022-11-20T01:34:17;9.00;66.50
32139;DHT22;18644;48.700;9.210;2022-11-20T01:36:45;9.00;66.40
32139;DHT22;18644;48.700;9.210;2022-11-20T01:39:15;9.00;66.30
32139;DHT22;18644;48.700;9.210;2022-11-20T01:41:45;9.00;66.20
32139;DHT22;18644;48.700;9.210;2022-11-20T01:45:00;8.90;66.00
32139;DHT22;18644;48.700;9.210;2022-11-20T01:47:31;8.90;65.90
32139;DHT22;18644;48.700;9.210;2022-11-20T01:50:05;8.90;65.80
32139;DHT22;18644;48.700;9.210;2022-11-20T01:52:36;8.80;65.60
32139;DHT22;18644;48.700;9.210;2022-11-20T01:55:07;8.80;65.60
32139;DHT22;18644;48.700;9.210;2022-11-20T01:57:38;8.70;65.50
32139;DHT22;18644;48.700;9.210;2022-11-20T02:00:10;8.70;65.40
32139;DHT22;18644;48.700;9.210;2022-11-20T02:02:44;8.60;65.40
32139;DHT22;18644;48.700;9.210;2022-11-20T02:05:18;8.60;65.50
32139;DHT22;18644;48.700;9.210;2022-11-20T02:07:48;8.50;65.50
32139;DHT22;18644;48.700;9.210;2022-11-20T02:10:17;8.50;65.50
32139;DHT22;18644;48.700;9.210;2022-11-20T02:12:45;8.50;65.60
32139;DHT22;18644;48.700;9.210;2022-11-20T02:15:38;8.40;65.60
32139;DHT22;18644;48.700;9.210;2022-11-20T02:18:05;8.40;65.60
32139;DHT22;18644;48.700;9.210;2022-11-20T02:20:32;8.30;65.80
32139;DHT22;18644;48.700;9.210;2022-11-20T02:23:02;8.30;66.40
32139;DHT22;18644;48.700;9.210;2022-11-20T02:25:33;8.20;66.10
32139;DHT22;18644;48.700;9.210;2022-11-20T02:28:00;8.30;66.50
32139;DHT22;18644;48.700;9.210;2022-11-20T02:30:28;8.20;66.20
32139;DHT22;18644;48.700;9.210;2022-11-20T02:32:57;8.20;66.30
32139;DHT22;18644;48.700;9.210;2022-11-20T02:35:42;8.20;66.40
32139;DHT22;18644;48.700;9.210;2022-11-20T02:38:12;8.20;66.70
32139;DHT22;18644;48.700;9.210;2022-11-20T02:40:42;8.10;66.70
32139;DHT22;18644;48.700;9.210;2022-11-20T02:43:09;8.10;66.70
32139;DHT22;18644;48.700;9.210;2022-11-20T02:45:36;8.10;66.80
32139;DHT22;18644;48.700;9.210;2022-11-20T02:48:05;8.10;66.90
32139;DHT22;18644;48.700;9.210;2022-11-20T02:50:32;8.10;67.00
32139;DHT22;18644;48.700;9.210;2022-11-20T02:52:59;8.10;67.00
32139;DHT22;18644;48.700;9.210;2022-11-20T02:55:26;8.10;66.90
32139;DHT22;18644;48.700;9.210;2022-11-20T02:57:54;8.10;67.00
32139;DHT22;18644;48.700;9.210;2022-11-20T03:00:21;8.10;67.10
32139;DHT22;18644;48.700;9.210;2022-11-20T03:02:48;8.10;67.10
32139;DHT22;18644;48.700;9.210;2022-11-20T03:05:15;8.10;67.20
32139;DHT22;18644;48.700;9.210;2022-11-20T03:07:43;8.10;67.20
32139;DHT22;18644;48.700;9.210;2022-11-20T03:10:11;8.10;67.40
32139;DHT22;18644;48.700;9.210;2022-11-20T03:12:38;8.10;67.50
32139;DHT22;18644;48.700;9.210;2022-11-20T03:15:08;8.10;67.50
32139;DHT22;18644;48.700;9.210;2022-11-20T03:17:35;8.20;67.70
32139;DHT22;18644;48.700;9.210;2022-11-20T03:20:04;8.20;67.60
32139;DHT22;18644;48.700;9.210;2022-11-20T03:22:34;8.20;67.70
32139;DHT22;18644;48.700;9.210;2022-11-20T03:25:01;8.20;67.80
32139;DHT22;18644;48.700;9.210;2022-11-20T03:27:32;8.20;67.80
32139;DHT22;18644;48.700;9.210;2022-11-20T03:30:00;8.30;67.80
32139;DHT22;18644;48.700;9.210;2022-11-20T03:32:29;8.30;67.80
32139;DHT22;18644;48.700;9.210;2022-11-20T03:34:57;8.30;67.70
32139;DHT22;18644;48.700;9.210;2022-11-20T03:37:24;8.30;67.70
32139;DHT22;18644;48.700;9.210;2022-11-20T03:39:51;8.30;67.50
32139;DHT22;18644;48.700;9.210;2022-11-20T03:42:17;8.30;67.30
32139;DHT22;18644;48.700;9.210;2022-11-20T03:45:02;8.30;67.30
32139;DHT22;18644;48.700;9.210;2022-11-20T03:47:31;8.30;67.20
32139;DHT22;18644;48.700;9.210;2022-11-20T03:49:57;8.30;67.20
32139;DHT22;18644;48.700;9.210;2022-11-20T03:52:24;8.30;67.00
32139;DHT22;18644;48.700;9.210;2022-11-20T03:54:51;8.30;66.90
32139;DHT22;18644;48.700;9.210;2022-11-20T03:57:18;8.30;66.80
32139;DHT22;18644;48.700;9.210;2022-11-20T03:59:45;8.20;66.70
32139;DHT22;18644;48.700;9.210;2022-11-20T04:02:12;8.20;66.70
32139;DHT22;18644;48.700;9.210;2022-11-20T04:04:40;8.20;66.70
32139;DHT22;18644;48.700;9.210;2022-11-20T04:07:08;8.20;66.70
32139;DHT22;18644;48.700;9.210;2022-11-20T04:09:35;8.10;66.50
32139;DHT22;18644;48.700;9.210;2022-11-20T04:12:02;8.10;66.50
32139;DHT22;18644;48.700;9.210;2022-11-20T04:14:29;8.10;66.50
32139;DHT22;18644;48.700;9.210;2022-11-20T04:16:56;8.00;66.50
32139;DHT22;18644;48.700;9.210;2022-11-20T04:19:23;8.00;66.70
32139;DHT22;18644;48.700;9.210;2022-11-20T04:21:51;8.00;66.70
32139;DHT22;18644;48.700;9.210;2022-11-20T04:24:18;8.00;66.80
32139;DHT22;18644;48.700;9.210;2022-11-20T04:26:45;8.00;66.90
32139;DHT22;18644;48.700;9.210;2022-11-20T04:29:13;7.90;66.80
32139;DHT22;18644;48.700;9.210;2022-11-20T04:31:41;7.90;66.80
32139;DHT22;18644;48.700;9.210;2022-11-20T04:34:11;7.90;66.80
32139;DHT22;18644;48.700;9.210;2022-11-20T04:36:38;7.90;66.90
32139;DHT22;18644;48.700;9.210;2022-11-20T04:39:07;7.90;67.00
32139;DHT22;18644;48.700;9.210;2022-11-20T04:41:38;7.90;67.10
32139;DHT22;18644;48.700;9.210;2022-11-20T04:44:05;7.90;67.20
32139;DHT22;18644;48.700;9.210;2022-11-20T04:46:35;7.90;67.40
32139;DHT22;18644;48.700;9.210;2022-11-20T04:49:03;7.90;67.40
32139;DHT22;18644;48.700;9.210;2022-11-20T04:51:30;7.90;67.50
32139;DHT22;18644;48.700;9.210;2022-11-20T04:53:57;7.90;67.60
32139;DHT22;18644;48.700;9.210;2022-11-20T04:56:26;7.90;67.70
32139;DHT22;18644;48.700;9.210;2022-11-20T04:58:53;7.90;67.80
32139;DHT22;18644;48.700;9.210;2022-11-20T05:01:21;7.90;67.80
32139;DHT22;18644;48.700;9.210;2022-11-20T05:03:49;8.00;68.00
32139;DHT22;18644;48.700;9.210;2022-11-20T05:06:19;8.00;68.00
32139;DHT22;18644;48.700;9.210;2022-11-20T05:08:47;8.00;68.10
32139;DHT22;18644;48.700;9.210;2022-11-20T05:11:15;8.00;68.20
32139;DHT22;18644;48.700;9.210;2022-11-20T05:13:44;8.10;68.30
32139;DHT22;18644;48.700;9.210;2022-11-20T05:16:13;8.10;68.30
32139;DHT22;18644;48.700;9.210;2022-11-20T05:18:42;8.10;68.30
32139;DHT22;18644;48.700;9.210;2022-11-20T05:21:10;8.20;68.40
32139;DHT22;18644;48.700;9.210;2022-11-20T05:23:38;8.20;68.40
32139;DHT22;18644;48.700;9.210;2022-11-20T05:26:06;8.20;68.30
32139;DHT22;18644;48.700;9.210;2022-11-20T05:28:34;8.30;68.40
32139;DHT22;18644;48.700;9.210;2022-11-20T05:31:08;8.30;68.30
32139;DHT22;18644;48.700;9.210;2022-11-20T05:33:39;8.40;68.40
32139;DHT22;18644;48.700;9.210;2022-11-20T05:36:07;8.40;68.30
32139;DHT22;18644;48.700;9.210;2022-11-20T05:38:35;8.40;68.30
32139;DHT22;18644;48.700;9.210;2022-11-20T05:41:06;8.40;68.20
32139;DHT22;18644;48.700;9.210;2022-11-20T05:43:34;8.40;68.10
32139;DHT22;18644;48.700;9.210;2022-11-20T05:46:01;8.40;68.10
32139;DHT22;18644;48.700;9.210;2022-11-20T05:48:30;8.50;68.90
32139;DHT22;18644;48.700;9.210;2022-11-20T05:50:57;8.50;68.00
32139;DHT22;18644;48.700;9.210;2022-11-20T05:53:24;8.50;67.90
32139;DHT22;18644;48.700;9.210;2022-11-20T05:55:57;8.60;67.90
32139;DHT22;18644;48.700;9.210;2022-11-20T05:58:24;8.60;67.80
32139;DHT22;18644;48.700;9.210;2022-11-20T06:00:51;8.60;67.80
32139;DHT22;18644;48.700;9.210;2022-11-20T06:03:18;8.60;67.70
32139;DHT22;18644;48.700;9.210;2022-11-20T06:05:47;8.60;67.70
32139;DHT22;18644;48.700;9.210;2022-11-20T06:08:14;8.60;67.60
32139;DHT22;18644;48.700;9.210;2022-11-20T06:10:41;8.60;67.50
32139;DHT22;18644;48.700;9.210;2022-11-20T06:13:09;8.60;67.50
32139;DHT22;18644;48.700;9.210;2022-11-20T06:15:36;8.60;67.40
32139;DHT22;18644;48.700;9.210;2022-11-20T06:18:03;8.60;67.30
32139;DHT22;18644;48.700;9.210;2022-11-20T06:20:30;8.60;67.30
32139;DHT22;18644;48.700;9.210;2022-11-20T06:22:58;8.60;67.30
32139;DHT22;18644;48.700;9.210;2022-11-20T06:25:25;8.60;67.20
32139;DHT22;18644;48.700;9.210;2022-11-20T06:27:52;8.60;67.20
32139;DHT22;18644;48.700;9.210;2022-11-20T06:30:19;8.60;67.20
32139;DHT22;18644;48.700;9.210;2022-11-20T06:32:46;8.60;67.20
32139;DHT22;18644;48.700;9.210;2022-11-20T06:35:13;8.60;67.20
32139;DHT22;18644;48.700;9.210;2022-11-20T06:37:40;8.60;67.20
32139;DHT22;18644;48.700;9.210;2022-11-20T06:40:10;8.70;67.30
32139;DHT22;18644;48.700;9.210;2022-11-20T06:42:37;8.70;67.30
32139;DHT22;18644;48.700;9.210;2022-11-20T06:45:05;8.60;67.20
32139;DHT22;18644;48.700;9.210;2022-11-20T06:47:32;8.60;67.20
32139;DHT22;18644;48.700;9.210;2022-11-20T06:49:59;8.70;67.30
32139;DHT22;18644;48.700;9.210;2022-11-20T06:52:27;8.70;67.30
32139;DHT22;18644;48.700;9.210;2022-11-20T06:54:54;8.70;67.30
32139;DHT22;18644;48.700;9.210;2022-11-20T06:57:22;8.70;67.30
32139;DHT22;18644;48.700;9.210;2022-11-20T06:59:49;8.70;67.20
32139;DHT22;18644;48.700;9.210;2022-11-20T07:02:16;8.70;67.10
32139;DHT22;18644;48.700;9.210;2022-11-20T07:04:43;8.70;67.10
32139;DHT22;18644;48.700;9.210;2022-11-20T07:07:10;8.70;67.10
32139;DHT22;18644;48.700;9.210;2022-11-20T07:09:37;8.70;67.10
32139;DHT22;18644;48.700;9.210;2022-11-20T07:12:05;8.70;67.00
32139;DHT22;18644;48.700;9.210;2022-11-20T07:14:33;8.70;67.00
32139;DHT22;18644;48.700;9.210;2022-11-20T07:17:00;8.70;66.90
32139;DHT22;18644;48.700;9.210;2022-11-20T07:19:27;8.70;66.90
32139;DHT22;18644;48.700;9.210;2022-11-20T07:21:55;8.70;66.90
32139;DHT22;18644;48.700;9.210;2022-11-20T07:24:22;8.70;66.90
32139;DHT22;18644;48.700;9.210;2022-11-20T07:26:49;8.70;67.00
32139;DHT22;18644;48.700;9.210;2022-11-20T07:29:16;8.70;67.10
32139;DHT22;18644;48.700;9.210;2022-11-20T07:31:44;8.70;67.10
32139;DHT22;18644;48.700;9.210;2022-11-20T07:34:11;8.70;67.20
32139;DHT22;18644;48.700;9.210;2022-11-20T07:36:38;8.80;67.30
32139;DHT22;18644;48.700;9.210;2022-11-20T07:39:05;8.80;67.40
32139;DHT22;18644;48.700;9.210;2022-11-20T07:41:32;8.80;67.40
32139;DHT22;18644;48.700;9.210;2022-11-20T07:43:59;8.80;67.40
32139;DHT22;18644;48.700;9.210;2022-11-20T07:46:26;8.90;67.40
32139;DHT22;18644;48.700;9.210;2022-11-20T07:48:55;8.80;67.30
32139;DHT22;18644;48.700;9.210;2022-11-20T07:51:22;8.90;67.40
32139;DHT22;18644;48.700;9.210;2022-11-20T07:53:50;8.90;67.40
32139;DHT22;18644;48.700;9.210;2022-11-20T07:56:17;8.90;67.40
32139;DHT22;18644;48.700;9.210;2022-11-20T07:58:44;9.00;68.40
32139;DHT22;18644;48.700;9.210;2022-11-20T08:01:11;9.10;68.40
32139;DHT22;18644;48.700;9.210;2022-11-20T08:03:38;9.20;68.60
32139;DHT22;18644;48.700;9.210;2022-11-20T08:06:07;9.30;68.40
32139;DHT22;18644;48.700;9.210;2022-11-20T08:08:34;9.40;68.00
32139;DHT22;18644;48.700;9.210;2022-11-20T08:11:01;9.50;67.70
32139;DHT22;18644;48.700;9.210;2022-11-20T08:13:45;9.50;67.50
32139;DHT22;18644;48.700;9.210;2022-11-20T08:16:30;9.60;67.30
32139;DHT22;18644;48.700;9.210;2022-11-20T08:18:57;9.60;67.10
32139;DHT22;18644;48.700;9.210;2022-11-20T08:21:25;9.60;66.90
32139;DHT22;18644;48.700;9.210;2022-11-20T08:23:52;9.60;67.00
32139;DHT22;18644;48.700;9.210;2022-11-20T08:26:21;9.60;67.00
32139;DHT22;18644;48.700;9.210;2022-11-20T08:28:48;9.60;67.00
32139;DHT22;18644;48.700;9.210;2022-11-20T08:31:15;9.60;67.00
32139;DHT22;18644;48.700;9.210;2022-11-20T08:33:42;9.70;67.00
32139;DHT22;18644;48.700;9.210;2022-11-20T08:36:09;9.70;67.00
32139;DHT22;18644;48.700;9.210;2022-11-20T08:38:37;9.70;67.10
32139;DHT22;18644;48.700;9.210;2022-11-20T08:41:05;9.70;67.00
32139;DHT22;18644;48.700;9.210;2022-11-20T08:43:52;9.70;67.10
32139;DHT22;18644;48.700;9.210;2022-11-20T08:46:20;9.80;67.20
32139;DHT22;18644;48.700;9.210;2022-11-20T08:48:48;9.80;67.10
32139;DHT22;18644;48.700;9.210;2022-11-20T08:51:15;9.80;67.10
32139;DHT22;18644;48.700;9.210;2022-11-20T08:53:44;9.80;67.10
32139;DHT22;18644;48.700;9.210;2022-11-20T08:56:11;9.80;67.10
32139;DHT22;18644;48.700;9.210;2022-11-20T08:58:39;9.80;67.10
32139;DHT22;18644;48.700;9.210;2022-11-20T09:01:06;9.80;67.20
32139;DHT22;18644;48.700;9.210;2022-11-20T09:03:33;9.90;67.20
32139;DHT22;18644;48.700;9.210;2022-11-20T09:06:02;9.90;67.10
32139;DHT22;18644;48.700;9.210;2022-11-20T09:08:31;9.90;67.20
32139;DHT22;18644;48.700;9.210;2022-11-20T09:11:00;9.90;67.20
32139;DHT22;18644;48.700;9.210;2022-11-20T09:13:28;10.00;67.30
32139;DHT22;18644;48.700;9.210;2022-11-20T09:15:57;10.00;67.30
32139;DHT22;18644;48.700;9.210;2022-11-20T09:18:25;10.10;67.50
32139;DHT22;18644;48.700;9.210;2022-11-20T09:20:56;10.10;67.50
32139;DHT22;18644;48.700;9.210;2022-11-20T09:23:24;10.20;67.50
32139;DHT22;18644;48.700;9.210;2022-11-20T09:25:51;10.20;67.40
32139;DHT22;18644;48.700;9.210;2022-11-20T09:28:22;10.30;67.10
32139;DHT22;18644;48.700;9.210;2022-11-20T09:30:49;10.30;66.90
32139;DHT22;18644;48.700;9.210;2022-11-20T09:33:15;10.30;66.80
32139;DHT22;18644;48.700;9.210;2022-11-20T09:35:44;10.30;66.80
32139;DHT22;18644;48.700;9.210;2022-11-20T09:38:11;10.30;66.80
32139;DHT22;18644;48.700;9.210;2022-11-20T09:40:44;10.30;66.90
32139;DHT22;18644;48.700;9.210;2022-11-20T09:43:18;10.40;66.80
32139;DHT22;18644;48.700;9.210;2022-11-20T09:45:56;10.40;66.50
32139;DHT22;18644;48.700;9.210;2022-11-20T09:48:54;10.40;66.40
32139;DHT22;18644;48.700;9.210;2022-11-20T09:51:36;10.40;66.30
32139;DHT22;18644;48.700;9.210;2022-11-20T09:54:16;10.40;66.40
32139;DHT22;18644;48.700;9.210;2022-11-20T09:56:47;10.40;66.30
32139;DHT22;18644;48.700;9.210;2022-11-20T09:59:33;10.40;66.30
32139;DHT22;18644;48.700;9.210;2022-11-20T10:02:12;10.40;66.20
32139;DHT22;18644;48.700;9.210;2022-11-20T10:04:46;10.40;66.40
32139;DHT22;18644;48.700;9.210;2022-11-20T10:07:21;10.40;66.50
32139;DHT22;18644;48.700;9.210;2022-11-20T10:09:52;10.50;66.60
32139;DHT22;18644;48.700;9.210;2022-11-20T10:12:27;10.50;66.50
32139;DHT22;18644;48.700;9.210;2022-11-20T10:15:10;10.50;66.30
32139;DHT22;18644;48.700;9.210;2022-11-20T10:17:55;10.50;66.20
32139;DHT22;18644;48.700;9.210;2022-11-20T10:20:46;10.50;66.00
32139;DHT22;18644;48.700;9.210;2022-11-20T10:23:28;10.50;66.10
32139;DHT22;18644;48.700;9.210;2022-11-20T10:26:02;10.50;66.10
32139;DHT22;18644;48.700;9.210;2022-11-20T10:28:53;10.60;66.30
32139;DHT22;18644;48.700;9.210;2022-11-20T10:31:31;10.60;66.40
32139;DHT22;18644;48.700;9.210;2022-11-20T10:34:05;10.60;66.40
32139;DHT22;18644;48.700;9.210;2022-11-20T10:36:38;10.60;66.40
32139;DHT22;18644;48.700;9.210;2022-11-20T10:39:16;10.60;66.40
32139;DHT22;18644;48.700;9.210;2022-11-20T10:41:50;10.70;66.70
32139;DHT22;18644;48.700;9.210;2022-11-20T10:44:21;10.70;66.70
32139;DHT22;18644;48.700;9.210;2022-11-20T10:47:13;10.70;66.70
32139;DHT22;18644;48.700;9.210;2022-11-20T10:49:43;10.70;66.60
32139;DHT22;18644;48.700;9.210;2022-11-20T10:52:17;10.70;66.50
32139;DHT22;18644;48.700;9.210;2022-11-20T10:54:54;10.70;66.50
32139;DHT22;18644;48.700;9.210;2022-11-20T10:57:35;10.70;66.50
32139;DHT22;18644;48.700;9.210;2022-11-20T11:00:14;10.70;66.60
32139;DHT22;18644;48.700;9.210;2022-11-20T11:02:46;10.70;66.60
32139;DHT22;18644;48.700;9.210;2022-11-20T11:05:26;10.70;66.50
32139;DHT22;18644;48.700;9.210;2022-11-20T11:07:58;10.70;66.50
32139;DHT22;18644;48.700;9.210;2022-11-20T11:10:31;10.60;66.40
32139;DHT22;18644;48.700;9.210;2022-11-20T11:13:03;10.60;66.50
32139;DHT22;18644;48.700;9.210;2022-11-20T11:15:37;10.60;66.50
32139;DHT22;18644;48.700;9.210;2022-11-20T11:18:08;10.60;66.70
32139;DHT22;18644;48.700;9.210;2022-11-20T11:20:37;10.60;66.90
32139;DHT22;18644;48.700;9.210;2022-11-20T11:23:04;10.60;67.10
32139;DHT22;18644;48.700;9.210;2022-11-20T11:25:33;10.70;67.30
32139;DHT22;18644;48.700;9.210;2022-11-20T11:28:03;10.70;67.40
32139;DHT22;18644;48.700;9.210;2022-11-20T11:30:41;10.70;67.50
32139;DHT22;18644;48.700;9.210;2022-11-20T11:33:11;10.80;67.60
32139;DHT22;18644;48.700;9.210;2022-11-20T11:35:47;10.90;67.70
32139;DHT22;18644;48.700;9.210;2022-11-20T11:38:21;10.90;67.50
32139;DHT22;18644;48.700;9.210;2022-11-20T11:40:49;11.00;67.30
32139;DHT22;18644;48.700;9.210;2022-11-20T11:43:22;11.20;67.20
32139;DHT22;18644;48.700;9.210;2022-11-20T11:46:24;11.20;66.80
32139;DHT22;18644;48.700;9.210;2022-11-20T11:48:56;11.20;66.00
32139;DHT22;18644;48.700;9.210;2022-11-20T11:51:28;11.20;65.70
32139;DHT22;18644;48.700;9.210;2022-11-20T11:54:00;11.10;65.60
32139;DHT22;18644;48.700;9.210;2022-11-20T11:56:30;11.20;66.20
32139;DHT22;18644;48.700;9.210;2022-11-20T11:59:05;11.30;66.70
32139;DHT22;18644;48.700;9.210;2022-11-20T12:01:37;11.40;67.10
32139;DHT22;18644;48.700;9.210;2022-11-20T12:04:14;11.50;67.20
32139;DHT22;18644;48.700;9.210;2022-11-20T12:06:51;11.70;67.10
32139;DHT22;18644;48.700;9.210;2022-11-20T12:09:24;11.80;67.90
32139;DHT22;18644;48.700;9.210;2022-11-20T12:12:08;12.00;67.20
32139;DHT22;18644;48.700;9.210;2022-11-20T12:14:38;12.20;67.10
32139;DHT22;18644;48.700;9.210;2022-11-20T12:17:08;12.30;66.10
32139;DHT22;18644;48.700;9.210;2022-11-20T12:19:38;12.40;65.40
32139;DHT22;18644;48.700;9.210;2022-11-20T12:22:14;12.50;64.70
32139;DHT22;18644;48.700;9.210;2022-11-20T12:24:55;12.50;63.60
32139;DHT22;18644;48.700;9.210;2022-11-20T12:27:48;12.50;63.00
32139;DHT22;18644;48.700;9.210;2022-11-20T12:30:21;12.40;61.90
32139;DHT22;18644;48.700;9.210;2022-11-20T12:33:04;12.40;62.10
32139;DHT22;18644;48.700;9.210;2022-11-20T12:35:48;12.30;61.90
32139;DHT22;18644;48.700;9.210;2022-11-20T12:38:37;12.30;62.10
32139;DHT22;18644;48.700;9.210;2022-11-20T12:41:18;12.30;61.70
32139;DHT22;18644;48.700;9.210;2022-11-20T12:44:19;12.20;61.50
32139;DHT22;18644;48.700;9.210;2022-11-20T12:47:18;12.20;61.00
32139;DHT22;18644;48.700;9.210;2022-11-20T12:49:58;12.10;60.90
32139;DHT22;18644;48.700;9.210;2022-11-20T12:52:43;12.00;60.70
32139;DHT22;18644;48.700;9.210;2022-11-20T12:55:28;11.90;60.50
32139;DHT22;18644;48.700;9.210;2022-11-20T12:58:04;11.90;61.30
32139;DHT22;18644;48.700;9.210;2022-11-20T13:00:38;12.00;61.80
32139;DHT22;18644;48.700;9.210;2022-11-20T13:03:31;12.00;61.90
32139;DHT22;18644;48.700;9.210;2022-11-20T13:06:11;12.10;61.50
32139;DHT22;18644;48.700;9.210;2022-11-20T13:08:42;12.10;61.40
32139;DHT22;18644;48.700;9.210;2022-11-20T13:11:19;12.20;61.00
32139;DHT22;18644;48.700;9.210;2022-11-20T13:14:04;12.20;60.40
32139;DHT22;18644;48.700;9.210;2022-11-20T13:16:44;12.20;60.30
32139;DHT22;18644;48.700;9.210;2022-11-20T13:19:16;12.20;60.50
32139;DHT22;18644;48.700;9.210;2022-11-20T13:21:45;12.30;60.90
32139;DHT22;18644;48.700;9.210;2022-11-20T13:24:23;12.30;60.70
32139;DHT22;18644;48.700;9.210;2022-11-20T13:27:05;12.30;60.60
32139;DHT22;18644;48.700;9.210;2022-11-20T13:29:47;12.40;61.20
32139;DHT22;18644;48.700;9.210;2022-11-20T13:32:26;12.50;61.40
32139;DHT22;18644;48.700;9.210;2022-11-20T13:34:59;12.60;61.00
32139;DHT22;18644;48.700;9.210;2022-11-20T13:37:30;12.70;60.60
32139;DHT22;18644;48.700;9.210;2022-11-20T13:40:21;12.80;60.00
32139;DHT22;18644;48.700;9.210;2022-11-20T13:43:04;12.80;59.20
32139;DHT22;18644;48.700;9.210;2022-11-20T13:45:35;12.80;58.90
32139;DHT22;18644;48.700;9.210;2022-11-20T13:48:04;12.80;58.90
32139;DHT22;18644;48.700;9.210;2022-11-20T13:50:52;12.70;58.40
32139;DHT22;18644;48.700;9.210;2022-11-20T13:53:33;12.70;58.20
32139;DHT22;18644;48.700;9.210;2022-11-20T13:56:23;12.60;58.10
32139;DHT22;18644;48.700;9.210;2022-11-20T13:58:59;12.50;58.20
32139;DHT22;18644;48.700;9.210;2022-11-20T14:01:30;12.50;58.30
32139;DHT22;18644;48.700;9.210;2022-11-20T14:03:58;12.50;58.70
32139;DHT22;18644;48.700;9.210;2022-11-20T14:06:27;12.50;58.60
32139;DHT22;18644;48.700;9.210;2022-11-20T14:08:58;12.50;58.50
32139;DHT22;18644;48.700;9.210;2022-11-20T14:11:28;12.50;58.30
32139;DHT22;18644;48.700;9.210;2022-11-20T14:13:59;12.60;57.80
32139;DHT22;18644;48.700;9.210;2022-11-20T14:16:29;12.50;57.60
32139;DHT22;18644;48.700;9.210;2022-11-20T14:19:23;12.40;57.20
32139;DHT22;18644;48.700;9.210;2022-11-20T14:21:54;12.30;56.50
32139;DHT22;18644;48.700;9.210;2022-11-20T14:24:33;12.20;56.60
32139;DHT22;18644;48.700;9.210;2022-11-20T14:27:00;12.00;56.60
32139;DHT22;18644;48.700;9.210;2022-11-20T14:29:34;11.90;56.70
32139;DHT22;18644;48.700;9.210;2022-11-20T14:32:02;11.80;56.80
32139;DHT22;18644;48.700;9.210;2022-11-20T14:34:32;11.70;57.10
32139;DHT22;18644;48.700;9.210;2022-11-20T14:37:04;11.60;57.30
32139;DHT22;18644;48.700;9.210;2022-11-20T14:39:35;11.50;57.50
32139;DHT22;18644;48.700;9.210;2022-11-20T14:42:14;11.40;57.70
32139;DHT22;18644;48.700;9.210;2022-11-20T14:44:43;11.40;58.00
32139;DHT22;18644;48.700;9.210;2022-11-20T14:47:13;11.30;58.10
32139;DHT22;18644;48.700;9.210;2022-11-20T14:49:44;11.30;58.30
32139;DHT22;18644;48.700;9.210;2022-11-20T14:52:14;11.20;58.50
32139;DHT22;18644;48.700;9.210;2022-11-20T14:54:46;11.20;58.60
32139;DHT22;18644;48.700;9.210;2022-11-20T14:57:21;11.20;58.70
32139;DHT22;18644;48.700;9.210;2022-11-20T14:59:51;11.20;58.70
32139;DHT22;18644;48.700;9.210;2022-11-20T15:02:33;11.10;58.90
32139;DHT22;18644;48.700;9.210;2022-11-20T15:05:02;11.10;59.00
32139;DHT22;18644;48.700;9.210;2022-11-20T15:07:31;11.10;59.10
32139;DHT22;18644;48.700;9.210;2022-11-20T15:10:03;11.00;59.20
32139;DHT22;18644;48.700;9.210;2022-11-20T15:12:33;11.00;59.20
32139;DHT22;18644;48.700;9.210;2022-11-20T15:15:03;11.00;59.30
32139;DHT22;18644;48.700;9.210;2022-11-20T15:17:32;11.00;59.30
32139;DHT22;18644;48.700;9.210;2022-11-20T15:20:03;11.00;59.30
32139;DHT22;18644;48.700;9.210;2022-11-20T15:22:32;10.90;59.30
32139;DHT22;18644;48.700;9.210;2022-11-20T15:24:59;10.90;59.30
32139;DHT22;18644;48.700;9.210;2022-11-20T15:27:26;10.80;59.40
32139;DHT22;18644;48.700;9.210;2022-11-20T15:29:53;10.80;59.50
32139;DHT22;18644;48.700;9.210;2022-11-20T15:32:21;10.80;59.50
32139;DHT22;18644;48.700;9.210;2022-11-20T15:34:48;10.70;60.00
32139;DHT22;18644;48.700;9.210;2022-11-20T15:37:15;10.70;59.50
32139;DHT22;18644;48.700;9.210;2022-11-20T15:39:43;10.60;59.50
32139;DHT22;18644;48.700;9.210;2022-11-20T15:42:12;10.60;59.60
32139;DHT22;18644;48.700;9.210;2022-11-20T15:44:38;10.50;59.60
32139;DHT22;18644;48.700;9.210;2022-11-20T15:47:06;10.50;59.70
32139;DHT22;18644;48.700;9.210;2022-11-20T15:49:36;10.50;59.80
32139;DHT22;18644;48.700;9.210;2022-11-20T15:52:03;10.50;59.90
32139;DHT22;18644;48.700;9.210;2022-11-20T15:54:30;10.40;60.00
32139;DHT22;18644;48.700;9.210;2022-11-20T15:56:57;10.40;60.00
32139;DHT22;18644;48.700;9.210;2022-11-20T15:59:26;10.30;60.10
32139;DHT22;18644;48.700;9.210;2022-11-20T16:01:53;10.20;60.20
32139;DHT22;18644;48.700;9.210;2022-11-20T16:04:20;10.20;60.20